Latest Coastal Weather Observations for Bougainville Reef

IDQ60701

Issued at 12:51 am EST Tuesday 25 July 2017 (issued every 10 minutes, with the page automatically refreshed every 10 minutes)

About coastal observations | Map of coastal stations | Coastal observations for QLD | Marine services | Other Formats
Station Details ID: 200840 Name: BOUGAINVILLE REEF Lat: -15.49 Lon: 147.12 Height: 0.0 m
Data from the previous 72 hours. | See also: Recent months for locations in Queensland
Date/Time
EST
Temp
°C
Wind Pressure Rain since
9am
mm
Weather Cloud Vis
km
Sea
Height
m
Swell
Dir  Spd
kts
Gust
kts
hPa Trend Height
m
Period
s
Dir
25/12:30am 24.7 SE 19 22 1016.7 - - - - - - - - -
25/12:00am 24.5 SE 21 26 1016.9 - - - - - - - - -
 
Date/Time
EST
Temp
°C
Wind Pressure Rain since
9am
mm
Weather Cloud Vis
km
Sea
Height
m
Swell
Dir  Spd
kts
Gust
kts
hPa Trend Height
m
Period
s
Dir
24/11:30pm 24.8 SE 24 27 1017.0 - - - - - - - - -
24/11:00pm 24.7 SE 21 26 1017.1 - - - - - - - - -
24/10:30pm 24.8 SE 22 27 1017.2 - - - - - - - - -
24/10:00pm 24.6 SE 25 29 1017.0 - - - - - - - - -
24/09:30pm 24.7 ESE 25 30 1017.0 - - - - - - - - -
24/09:00pm 24.6 SE 24 28 1016.6 - - - - - - - - -
24/08:30pm 24.7 ESE 24 27 1016.6 - - - - - - - - -
24/08:00pm 24.8 ESE 24 27 1016.3 - - - - - - - - -
24/07:30pm 24.6 ESE 24 27 1016.2 - - - - - - - - -
24/07:00pm 24.7 ESE 24 28 1015.5 - - - - - - - - -
24/06:30pm 24.7 ESE 24 28 1015.4 - - - - - - - - -
24/06:00pm 24.6 SE 25 29 1014.9 - - - - - - - - -
24/05:30pm 24.9 SE 24 27 1014.8 - - - - - - - - -
24/05:00pm 24.1 SE 21 27 1014.6 - - - - - - - - -
24/04:30pm 24.2 ESE 21 25 1014.6 - - - - - - - - -
24/04:00pm 24.7 SE 20 26 1014.4 - - - - - - - - -
24/03:30pm 24.8 SE 18 20 1014.5 - - - - - - - - -
24/03:00pm 24.8 SE 19 22 1014.6 - - - - - - - - -
24/02:30pm 24.8 SE 18 21 1014.7 - - - - - - - - -
24/02:00pm 24.8 ESE 18 21 1014.9 - - - - - - - - -
24/01:30pm 24.8 SE 20 24 1015.3 - - - - - - - - -
24/01:00pm 24.7 SE 20 21 1015.6 - - - - - - - - -
24/12:30pm 24.5 SE 20 23 1016.0 - - - - - - - - -
24/12:00pm 24.6 SE 18 22 1016.4 - - - - - - - - -
24/11:30am 24.5 SE 20 23 1016.7 - - - - - - - - -
24/11:00am 24.6 ESE 18 22 1017.0 - - - - - - - - -
24/10:30am 24.7 SE 19 22 1017.3 - - - - - - - - -
24/10:00am 24.6 SE 21 23 1017.4 - - - - - - - - -
24/09:30am 24.6 SE 23 26 1017.5 - - - - - - - - -
24/09:00am 24.5 SE 23 27 1017.2 - - - - - - - - -
24/08:30am 24.9 ESE 22 26 1017.1 - - - - - - - - -
24/08:00am 24.5 SE 18 22 1016.8 - - - - - - - - -
24/07:30am 24.5 SE 19 22 1016.8 - - - - - - - - -
24/07:00am 24.3 SE 18 21 1016.5 - - - - - - - - -
24/06:30am 24.4 SE 19 22 1016.4 - - - - - - - - -
24/06:00am 24.4 SE 19 22 1015.8 - - - - - - - - -
24/05:30am 24.4 SE 20 23 1015.7 - - - - - - - - -
24/05:00am 24.3 SE 20 22 1015.4 - - - - - - - - -
24/04:30am 24.4 SE 21 24 1015.4 - - - - - - - - -
24/04:00am 24.6 SE 19 22 1015.3 - - - - - - - - -
24/03:30am 24.6 ESE 19 21 1015.4 - - - - - - - - -
24/03:00am 24.6 ESE 19 21 1015.3 - - - - - - - - -
24/02:30am 24.6 ESE 19 22 1015.5 - - - - - - - - -
24/02:00am 24.6 ESE 19 22 1015.7 - - - - - - - - -
24/01:30am 24.6 ESE 19 22 1016.0 - - - - - - - - -
24/01:00am 24.7 ESE 20 24 1016.0 - - - - - - - - -
24/12:30am 25.0 ESE 20 23 1016.3 - - - - - - - - -
24/12:00am 24.7 ESE 20 23 1016.2 - - - - - - - - -
 
Date/Time
EST
Temp
°C
Wind Pressure Rain since
9am
mm
Weather Cloud Vis
km
Sea
Height
m
Swell
Dir  Spd
kts
Gust
kts
hPa Trend Height
m
Period
s
Dir
23/11:30pm 24.9 ESE 21 24 1016.4 - - - - - - - - -
23/11:00pm 24.9 ESE 20 22 1016.5 - - - - - - - - -
23/10:30pm 24.7 ESE 21 25 1016.5 - - - - - - - - -
23/10:00pm 25.2 ESE 21 23 1016.4 - - - - - - - - -
23/09:30pm 25.0 ESE 20 23 1016.5 - - - - - - - - -
23/09:00pm 24.8 ESE 20 23 1016.1 - - - - - - - - -
23/08:30pm 25.0 ESE 19 22 1016.1 - - - - - - - - -
23/08:00pm 24.8 ESE 20 22 1015.7 - - - - - - - - -
23/07:30pm 25.0 ESE 19 22 1015.7 - - - - - - - - -
23/07:00pm 25.2 ESE 19 22 1015.2 - - - - - - - - -
23/06:30pm 25.1 ESE 18 21 1015.2 - - - - - - - - -
23/06:00pm 25.0 SE 16 22 1014.8 - - - - - - - - -
23/05:30pm 24.9 SE 18 20 1014.8 - - - - - - - - -
23/05:00pm 24.9 SE 17 18 1014.4 - - - - - - - - -
23/04:30pm 24.9 SE 17 19 1014.5 - - - - - - - - -
23/04:00pm 24.9 SE 16 18 1014.5 - - - - - - - - -
23/03:30pm 24.9 SE 18 21 1014.5 - - - - - - - - -
23/03:00pm 25.0 SE 18 21 1014.5 - - - - - - - - -
23/02:30pm 25.1 ESE 17 21 1014.7 - - - - - - - - -
23/02:00pm 24.9 ESE 17 20 1014.8 - - - - - - - - -
23/01:30pm 24.8 SE 17 20 1015.1 - - - - - - - - -
23/01:00pm 25.1 ESE 18 21 1015.7 - - - - - - - - -
23/12:30pm 25.1 ESE 17 21 1016.0 - - - - - - - - -
23/12:00pm 24.9 ESE 19 21 1016.3 - - - - - - - - -
23/11:30am 24.7 ESE 19 23 1016.6 - - - - - - - - -
23/11:00am 25.1 ESE 19 23 1017.0 - - - - - - - - -
23/10:30am 25.0 ESE 20 23 1017.2 - - - - - - - - -
23/10:00am 25.0 ESE 20 23 1017.3 - - - - - - - - -
23/09:30am 25.0 SE 20 23 1017.5 - - - - - - - - -
23/09:00am 24.9 SE 22 26 1017.2 - - - - - - - - -
23/08:30am 24.7 SE 18 21 1017.2 - - - - - - - - -
23/08:00am 24.5 SE 18 22 1016.8 - - - - - - - - -
23/07:30am 24.8 ESE 19 21 1016.7 - - - - - - - - -
23/07:00am 24.6 ESE 21 23 1016.2 - - - - - - - - -
23/06:30am 24.6 ESE 22 25 1016.1 - - - - - - - - -
23/06:00am 24.6 SE 21 26 1015.6 - - - - - - - - -
23/05:30am 24.5 SE 19 22 1015.5 - - - - - - - - -
23/05:00am 24.5 SE 19 21 1015.2 - - - - - - - - -
23/04:30am 24.7 ESE 19 22 1015.3 - - - - - - - - -
23/04:00am 24.5 SE 21 22 1015.2 - - - - - - - - -
23/03:30am 24.4 ESE 21 24 1015.2 - - - - - - - - -
23/03:00am 24.6 SE 21 23 1015.3 - - - - - - - - -
23/02:30am 24.4 SE 21 25 1015.5 - - - - - - - - -
23/02:00am 24.7 SE 21 23 1015.8 - - - - - - - - -
23/01:30am 24.6 SE 21 23 1016.1 - - - - - - - - -
23/01:00am 24.7 ESE 20 22 1016.3 - - - - - - - - -
23/12:30am 24.7 ESE 22 25 1016.6 - - - - - - - - -
23/12:00am 24.7 ESE 20 23 1016.9 - - - - - - - - -
 
Date/Time
EST
Temp
°C
Wind Pressure Rain since
9am
mm
Weather Cloud Vis
km
Sea
Height
m
Swell
Dir  Spd
kts
Gust
kts
hPa Trend Height
m
Period
s
Dir
22/11:30pm 24.7 ESE 20 23 1016.9 - - - - - - - - -
22/11:00pm 24.7 SE 20 23 1017.3 - - - - - - - - -
22/10:30pm 24.6 ESE 21 24 1017.4 - - - - - - - - -
22/10:00pm 24.6 ESE 21 25 1017.3 - - - - - - - - -
22/09:30pm 24.8 ESE 20 24 1017.3 - - - - - - - - -
22/09:00pm 24.8 ESE 20 23 1016.9 - - - - - - - - -
22/08:30pm 25.0 ESE 21 24 1016.8 - - - - - - - - -
22/08:00pm 24.6 ESE 22 25 1016.4 - - - - - - - - -
22/07:30pm 24.7 SE 22 26 1016.3 - - - - - - - - -
22/07:00pm 24.8 ESE 21 26 1015.7 - - - - - - - - -
22/06:30pm 24.7 SE 20 23 1015.7 - - - - - - - - -
22/06:00pm 24.6 SE 21 24 1015.2 - - - - - - - - -
22/05:30pm 24.6 ESE 22 25 1015.1 - - - - - - - - -
22/05:00pm 24.6 SE 19 22 1014.7 - - - - - - - - -
22/04:30pm 24.6 SE 20 22 1014.7 - - - - - - - - -
22/04:00pm 24.5 SE 19 22 1014.6 - - - - - - - - -
22/03:30pm 24.5 SE 20 22 1014.7 - - - - - - - - -
22/03:00pm 24.4 SE 21 25 1014.6 - - - - - - - - -
22/02:30pm 24.5 SE 20 23 1014.6 - - - - - - - - -
22/02:00pm 24.5 SE 19 22 1015.0 - - - - - - - - -
22/01:30pm 24.6 SE 21 24 1015.4 - - - - - - - - -
22/01:00pm 24.5 SE 19 23 1016.0 - - - - - - - - -
22/12:30pm 24.6 SE 20 22 1016.3 - - - - - - - - -
22/12:00pm 24.6 SE 20 22 1016.7 - - - - - - - - -
22/11:30am 24.6 SE 19 22 1017.1 - - - - - - - - -
22/11:00am 24.6 SE 20 24 1017.6 - - - - - - - - -
22/10:30am 24.7 SE 20 24 1017.9 - - - - - - - - -
22/10:00am 24.8 SE 22 25 1017.8 - - - - - - - - -
22/09:30am 24.5 SE 20 24 1017.9 - - - - - - - - -
22/09:00am 24.9 SE 20 24 1017.5 - - - - - - - - -
22/08:30am 24.5 SE 20 24 1017.4 - - - - - - - - -
22/08:00am 24.6 SE 20 22 1017.1 - - - - - - - - -
22/07:30am 24.5 SE 21 23 1017.0 - - - - - - - - -
22/07:00am 24.5 SE 19 22 1016.5 - - - - - - - - -
22/06:30am 24.6 SE 19 23 1016.3 - - - - - - - - -
22/06:00am 24.5 ESE 19 22 1015.7 - - - - - - - - -
22/05:30am 24.3 SE 20 23 1015.6 - - - - - - - - -
22/05:00am 24.4 ESE 19 22 1015.2 - - - - - - - - -
22/04:30am 24.3 ESE 19 22 1015.3 - - - - - - - - -
22/04:00am 24.3 SE 20 22 1015.1 - - - - - - - - -
22/03:30am 24.3 SE 19 22 1015.2 - - - - - - - - -
22/03:00am 24.3 SE 20 22 1015.1 - - - - - - - - -
22/02:30am 24.3 ESE 17 20 1015.2 - - - - - - - - -
22/02:00am 24.2 ESE 18 20 1015.5 - - - - - - - - -
22/01:30am 24.2 ESE 20 22 1015.7 - - - - - - - - -
22/01:00am 24.3 ESE 18 21 1015.9 - - - - - - - - -

Other Formats:

Comma delimited format used in spreadsheet applications
http://www.bom.gov.au/fwo/IDQ60701/IDQ60701.95288.axf

JavaScript Object Notation format (JSON) in row-major order
http://www.bom.gov.au/fwo/IDQ60701/IDQ60701.95288.json